Terminal Aerodrome Forecast
Issued by NWS

Home | Current Version | Previous Version | Text Only | Print | Product List | Glossary On
Versions: 1 2 3 4 5 6 7 8 9 10 11 12 13
000
FTUS43 KOAX 230500
TAFCDR
TAF
KCDR 230520Z 2306/2406 20007KT P6SM SCT100
     FM230800 23007KT P6SM SCT100
     FM231600 28009KT P6SM FEW100
     FM232000 32011KT P6SM SCT100
     FM240300 VRB05KT P6SM SKC=

USA.gov is the U.S. government's official web portal to all federal, state and local government web resources and services.